createdAt,value
2022-11-25T00:03:11.841Z,2.7
2022-11-25T00:13:13.096Z,3.3
2022-11-25T00:23:14.346Z,2.8
2022-11-25T00:33:15.627Z,3
2022-11-25T00:43:16.952Z,3.5
2022-11-25T00:46:19.070Z,3.5
2022-11-25T00:53:29.881Z,3.8
2022-11-25T01:03:20.526Z,4
2022-11-25T01:13:23.036Z,4.2
2022-11-25T01:23:22.318Z,4.1
2022-11-25T01:33:23.063Z,3.8
2022-11-25T01:43:24.214Z,3.7
2022-11-25T01:53:25.257Z,3.8
2022-11-25T01:59:40.416Z,3.8
2022-11-25T02:03:26.396Z,3.4
2022-11-25T02:13:27.487Z,3.2
2022-11-25T02:23:28.601Z,3.2
2022-11-25T02:33:29.507Z,3.7
2022-11-25T02:43:30.505Z,3.8
2022-11-25T02:53:31.442Z,3.5
2022-11-25T03:03:32.440Z,3.5
2022-11-25T03:13:33.438Z,3.9
2022-11-25T03:23:34.453Z,3.8
2022-11-25T03:33:35.385Z,3.8
2022-11-25T03:43:36.394Z,4.3
2022-11-25T03:53:37.431Z,4.4
2022-11-25T04:03:38.436Z,4.1
2022-11-25T04:13:39.435Z,4.3
2022-11-25T04:23:40.425Z,4
2022-11-25T04:33:41.402Z,4
2022-11-25T04:43:42.379Z,3.8
2022-11-25T04:53:43.303Z,4.6
2022-11-25T05:03:48.906Z,4.1
2022-11-25T05:13:45.111Z,3.9
2022-11-25T05:23:46.059Z,3.4
2022-11-25T05:33:46.989Z,3.5
2022-11-25T05:43:47.815Z,3.6
2022-11-25T05:53:48.689Z,3.2
2022-11-25T06:03:49.672Z,3.2
2022-11-25T06:13:50.508Z,3.4
2022-11-25T06:23:51.468Z,3.8
2022-11-25T06:33:52.346Z,3.6
2022-11-25T06:43:53.278Z,4.1
2022-11-25T06:53:54.177Z,4.1
2022-11-25T07:03:55.182Z,3.6
2022-11-25T07:13:56.297Z,3.6
2022-11-25T07:23:57.173Z,3.6
2022-11-25T07:33:58.079Z,3.8
2022-11-25T07:43:59.058Z,3.6
2022-11-25T07:54:00.100Z,4.1
2022-11-25T08:04:01.129Z,3.9
